Latest Weather Observations for Perisher Valley

IDN60901

Issued at 5:41 pm EST Wednesday 23 September 2020 (issued every 10 minutes, with the page automatically refreshed every 10 minutes)

About weather observations | Map of Canberra area stations | Latest observations for Canberra area | Other Formats
Station Details ID: 071075 Name: PERISHER VALLEY AWS Lat: -36.41 Lon: 148.41 Height: 1738.0 m
Data from the previous 72 hours. | See also: Recent months at Perisher Valley
Date/Time
EST
Temp
°C
App
Temp
°C
Dew
Point
°C
Rel
Hum
%
Delta-T
°C
Wind Press
QNH
hPa
Press
MSL
hPa
Rain since
9am
mm
Dir  Spd
km/h
Gust
km/h
Spd
kts
Gust
kts
23/05:30pm -0.1 -5.7 -0.1 100 0.0 W 19 43 10 23 - - 2.6
23/05:00pm -0.1 -5.7 -0.1 100 0.0 W 19 43 10 23 - - 2.6
23/04:30pm 0.0 -4.1 0.0 100 0.0 W 11 33 6 18 - - 2.6
23/04:00pm -0.1 -5.9 -0.1 100 0.0 W 20 46 11 25 - - 2.6
23/03:30pm 0.0 -4.1 0.0 100 0.0 W 11 39 6 21 - - 2.4
23/03:00pm 0.2 -6.3 0.2 100 0.0 WNW 24 52 13 28 - - 2.0
23/02:41pm -0.1 -7.5 -0.4 98 0.1 WNW 28 56 15 30 - - 2.0
23/02:30pm 0.2 -5.0 0.2 100 0.0 W 17 44 9 24 - - 2.0
23/02:00pm 0.0 -5.8 -0.1 99 0.0 W 20 52 11 28 - - 2.0
23/01:30pm 0.6 -5.1 0.3 98 0.1 W 20 48 11 26 - - 1.6
23/01:16pm 0.2 -7.1 0.2 100 0.0 WNW 28 59 15 32 - - 1.4
23/01:00pm 0.4 -5.2 0.0 97 0.2 W 19 54 10 29 - - 1.0
23/12:38pm 0.5 -5.3 0.2 98 0.1 W 20 57 11 31 - - 0.8
23/12:30pm 0.4 -4.8 0.4 100 0.0 WSW 17 41 9 22 - - 0.8
23/12:00pm 0.2 -5.4 0.2 100 0.0 W 19 46 10 25 - - 0.8
23/11:30am -0.2 -8.3 -0.2 100 0.0 WNW 32 80 17 43 - - 0.8
23/11:00am -0.3 -7.6 -0.3 100 0.0 WNW 28 63 15 34 - - 0.6
23/10:30am -0.3 -9.8 -0.6 98 0.1 WNW 39 72 21 39 - - 0.2
23/10:16am 0.0 -8.2 -1.0 93 0.4 WNW 32 72 17 39 - - 0.2
23/10:00am 0.3 -7.1 -0.7 93 0.4 WNW 28 52 15 28 - - 0.0
23/09:33am 0.1 -9.0 -0.5 96 0.2 WNW 37 72 20 39 - - 0.0
23/09:30am -0.3 -10.2 -0.7 97 0.1 WNW 41 72 22 39 - - 0.0
23/09:01am -0.8 -8.7 -1.8 93 0.3 WNW 30 61 16 33 - - 0.0
23/09:00am -0.8 -8.0 -1.8 93 0.3 WNW 26 61 14 33 - - 11.2
23/08:30am -0.6 -11.7 -2.8 85 0.8 WNW 46 72 25 39 - - 11.2
23/08:00am -0.9 -10.3 -2.9 86 0.7 WNW 37 70 20 38 - - 11.2
23/07:30am -0.9 -11.9 -2.3 90 0.5 WNW 46 69 25 37 - - 11.2
23/07:00am -0.8 -11.5 -2.4 89 0.6 W 44 69 24 37 - - 11.2
23/06:30am -0.8 -11.1 -0.8 100 0.0 WNW 43 63 23 34 - - 11.2
23/06:00am -0.6 -10.1 -0.6 100 0.0 WNW 39 59 21 32 - - 11.2
23/05:32am -0.3 -9.4 -0.7 97 0.1 WNW 37 63 20 34 - - 11.2
23/05:30am -0.2 -9.3 -0.6 97 0.1 WNW 37 56 20 30 - - 11.2
23/05:00am -0.5 -9.8 -1.8 91 0.5 WNW 37 59 20 32 - - 11.0
23/04:30am 0.1 -7.9 0.1 100 0.0 WNW 32 69 17 37 - - 11.0
23/04:00am 0.3 -7.8 0.0 98 0.1 WNW 32 52 17 28 - - 9.8
23/03:30am 0.5 -8.1 0.5 100 0.0 WNW 35 57 19 31 - - 8.6
23/03:11am 0.2 -7.1 0.2 100 0.0 WNW 28 56 15 30 - - 8.2
23/03:00am 0.1 -6.8 0.1 100 0.0 WNW 26 54 14 29 - - 8.0
23/02:43am 0.0 -7.3 0.0 100 0.0 W 28 56 15 30 - - 8.0
23/02:30am 0.1 -5.7 0.1 100 0.0 W 20 46 11 25 - - 8.0
23/02:00am 0.1 -7.2 0.1 100 0.0 W 28 52 15 28 - - 8.0
23/01:53am 0.1 -7.2 0.1 100 0.0 WNW 28 54 15 29 - - 8.0
23/01:30am 0.0 -6.5 0.0 100 0.0 WNW 24 44 13 24 - - 7.8
23/01:00am 0.3 -6.2 0.3 100 0.0 W 24 54 13 29 - - 7.8
23/12:41am 0.5 -6.7 0.5 100 0.0 W 28 54 15 29 - - 7.8
23/12:30am 0.4 -4.8 0.4 100 0.0 W 17 43 9 23 - - 7.8
23/12:00am 0.5 -5.6 0.5 100 0.0 WNW 22 46 12 25 - - 7.8
 
Date/Time
EST
Temp
°C
App
Temp
°C
Dew
Point
°C
Rel
Hum
%
Delta-T
°C
Wind Press
QNH
hPa
Press
MSL
hPa
Rain since
9am
mm
Dir  Spd
km/h
Gust
km/h
Spd
kts
Gust
kts
22/11:30pm 0.6 -5.9 0.5 99 0.0 WNW 24 50 13 27 - - 7.8
22/11:18pm 0.7 -6.6 0.3 97 0.2 WNW 28 50 15 27 - - 7.8
22/11:00pm 0.7 -5.0 0.7 100 0.0 WNW 20 37 11 20 - - 7.8
22/10:30pm 0.8 -5.2 0.8 100 0.0 WNW 22 44 12 24 - - 7.8
22/10:15pm 0.7 -6.5 0.7 100 0.0 WNW 28 54 15 29 - - 7.8
22/10:00pm 0.7 -5.4 0.7 100 0.0 WNW 22 43 12 23 - - 7.8
22/09:50pm 0.7 -6.5 0.7 100 0.0 WNW 28 54 15 29 - - 7.8
22/09:30pm 0.6 -5.5 0.5 99 0.0 W 22 50 12 27 - - 7.6
22/09:00pm 1.4 -3.1 -0.1 90 0.6 WNW 13 39 7 21 - - 4.4
22/08:30pm 1.9 -2.2 -0.2 86 0.9 WNW 11 33 6 18 - - 3.0
22/08:00pm 2.0 -2.1 -0.4 84 1.0 WNW 11 28 6 15 - - 3.0
22/07:30pm 2.1 -2.8 -0.5 83 1.1 NW 15 46 8 25 - - 3.0
22/07:00pm 2.2 -1.9 -0.5 82 1.1 W 11 35 6 19 - - 2.6
22/06:30pm 2.0 -3.7 -0.9 81 1.2 W 19 43 10 23 - - 2.4
22/06:00pm 2.3 -3.0 -0.3 83 1.1 W 17 52 9 28 - - 2.4
22/05:30pm 2.2 -1.6 -0.5 82 1.1 W 9 41 5 22 - - 2.0
22/05:00pm 2.6 -2.4 -1.2 76 1.5 W 15 41 8 22 - - 1.2
22/04:30pm 2.7 -2.2 -0.7 78 1.4 WNW 15 35 8 19 - - 1.2
22/04:00pm 2.8 -2.1 -0.6 78 1.4 WNW 15 39 8 21 - - 1.2
22/03:30pm 2.5 -1.9 0.4 86 0.9 WNW 13 46 7 25 - - 1.2
22/03:00pm 2.5 -1.6 -0.4 81 1.2 WNW 11 44 6 24 - - 0.2
22/02:30pm 3.3 -1.9 -0.2 78 1.5 WNW 17 44 9 24 - - 0.0
22/02:00pm 3.4 -1.4 0.1 79 1.4 WNW 15 37 8 20 - - 0.0
22/01:30pm 4.0 -0.8 0.5 78 1.5 WNW 15 39 8 21 - - 0.0
22/01:00pm 3.9 -0.8 1.1 82 1.2 WNW 15 46 8 25 - - 0.0
22/12:30pm 3.5 -1.2 1.2 85 1.0 WNW 15 50 8 27 - - 0.0
22/12:00pm 3.8 -1.2 1.2 83 1.1 NW 17 41 9 22 - - 0.0
22/11:30am 3.3 -0.7 0.7 83 1.1 WNW 11 30 6 16 - - 0.0
22/11:00am 4.1 -0.3 0.4 77 1.6 W 13 37 7 20 - - 0.0
22/10:30am 5.0 0.5 -0.6 67 2.4 W 13 30 7 16 - - 0.0
22/10:00am 4.8 0.2 -1.2 65 2.5 W 13 30 7 16 - - 0.0
22/09:30am 4.3 -0.8 -2.3 62 2.6 W 15 41 8 22 - - 0.0
22/09:00am 4.3 -1.3 -3.0 59 2.9 W 17 39 9 21 - - 20.4
22/08:30am 4.2 -0.7 -3.1 59 2.9 W 13 37 7 20 - - 20.4
22/08:00am 3.8 -1.5 -3.7 58 2.9 W 15 46 8 25 - - 20.4
22/07:30am 3.6 -1.0 -3.9 58 2.9 W 11 33 6 18 - - 20.4
22/07:00am 3.0 -1.6 -4.4 58 2.8 WSW 11 28 6 15 - - 20.4
22/06:30am 2.5 -2.5 -4.5 60 2.7 W 13 28 7 15 - - 20.4
22/06:00am 2.0 -2.6 -4.1 64 2.4 W 11 26 6 14 - - 20.4
22/05:30am 1.7 -2.5 -3.6 68 2.1 W 9 24 5 13 - - 20.4
22/05:00am 1.5 -2.7 -1.2 82 1.1 W 11 20 6 11 - - 20.4
22/04:30am 1.5 -2.8 -1.7 79 1.3 W 11 26 6 14 - - 20.4
22/04:00am 1.7 -3.0 -1.7 78 1.3 W 13 30 7 16 - - 20.4
22/03:30am 1.8 -3.5 -0.4 85 0.9 W 17 32 9 17 - - 20.4
22/03:00am 2.1 -4.0 0.2 87 0.8 W 22 37 12 20 - - 20.4
22/02:30am 2.4 -4.8 0.8 89 0.7 W 28 43 15 23 - - 20.4
22/02:00am 2.5 -5.2 -0.4 81 1.2 W 30 48 16 26 - - 20.4
22/01:56am 2.5 -5.2 -0.1 83 1.1 W 30 48 16 26 - - 20.4
22/01:30am 2.6 -5.7 -0.3 81 1.2 WNW 33 48 18 26 - - 20.4
22/01:00am 2.5 -4.9 -0.4 81 1.2 W 28 46 15 25 - - 20.4
22/12:47am 2.7 -4.7 -0.6 79 1.4 W 28 46 15 25 - - 20.4
22/12:30am 2.8 -2.9 0.7 86 0.9 W 20 41 11 22 - - 20.4
22/12:00am 3.4 -2.6 1.1 85 1.0 W 22 37 12 20 - - 20.4
 
Date/Time
EST
Temp
°C
App
Temp
°C
Dew
Point
°C
Rel
Hum
%
Delta-T
°C
Wind Press
QNH
hPa
Press
MSL
hPa
Rain since
9am
mm
Dir  Spd
km/h
Gust
km/h
Spd
kts
Gust
kts
21/11:30pm 3.9 -1.8 0.6 79 1.4 W 20 35 11 19 - - 20.4
21/11:00pm 4.3 -2.3 2.2 86 0.9 W 26 39 14 21 - - 20.4
21/10:30pm 4.7 -1.1 2.1 83 1.2 W 22 39 12 21 - - 20.4
21/10:00pm 6.5 2.5 5.0 90 0.7 W 15 30 8 16 - - 20.4
21/09:30pm 7.0 2.0 4.8 86 1.1 WNW 20 41 11 22 - - 19.0
21/09:00pm 7.1 4.7 5.4 89 0.8 NW 7 33 4 18 - - 15.4
21/08:30pm 7.3 5.0 5.9 91 0.7 WNW 7 24 4 13 - - 14.8
21/08:00pm 7.0 4.8 6.3 95 0.4 W 7 19 4 10 - - 14.8
21/07:30pm 6.9 4.7 6.0 94 0.5 W 7 19 4 10 - - 14.8
21/07:00pm 7.5 4.0 5.3 86 1.1 W 13 32 7 17 - - 14.8
21/06:30pm 7.7 4.4 6.3 91 0.7 W 13 28 7 15 - - 14.8
21/06:00pm 7.5 4.3 6.9 96 0.3 W 13 37 7 20 - - 14.6
21/05:30pm 8.1 6.3 8.0 99 0.1 WNW 7 22 4 12 - - 9.8
21/05:00pm 7.8 5.9 7.4 97 0.2 NW 7 28 4 15 - - 8.8
21/04:30pm 7.6 5.5 6.7 94 0.5 N 7 15 4 8 - - 8.8
21/04:00pm 7.2 4.8 6.9 98 0.2 NNE 9 30 5 16 - - 8.2
21/03:30pm 6.2 0.6 3.4 82 1.3 WNW 22 52 12 28 - - 5.0
21/03:24pm 9.1 5.0 6.4 83 1.4 NW 17 61 9 33 - - 1.6
21/03:00pm 10.5 7.9 6.3 75 2.2 NNW 9 20 5 11 - - 0.0
21/02:30pm 11.6 8.3 6.3 70 2.8 N 13 37 7 20 - - 0.0
21/02:00pm 11.8 8.9 6.5 70 2.8 NW 11 30 6 16 - - 0.0
21/01:30pm 11.7 9.2 6.4 70 2.8 W 9 32 5 17 - - 0.0
21/01:00pm 12.4 9.4 6.0 65 3.3 W 11 33 6 18 - - 0.0
21/12:30pm 12.3 9.3 6.1 66 3.2 NW 11 30 6 16 - - 0.0
21/12:00pm 11.8 8.5 6.3 69 2.9 W 13 39 7 21 - - 0.0
21/11:30am 11.3 8.0 6.2 71 2.6 W 13 35 7 19 - - 0.0
21/11:00am 10.6 6.5 6.2 74 2.3 W 17 43 9 23 - - 0.0
21/10:30am 10.1 5.6 6.3 77 2.0 W 19 43 10 23 - - 0.0
21/10:00am 10.6 6.2 6.4 75 2.2 W 19 39 10 21 - - 0.0
21/09:30am 10.0 5.5 6.0 76 2.0 W 19 43 10 23 - - 0.0
21/09:00am 9.7 5.9 5.7 76 2.0 W 15 39 8 21 - - 3.6
21/08:30am 9.6 7.5 6.0 78 1.8 W 6 20 3 11 - - 3.6
21/08:00am 8.8 6.5 5.5 80 1.7 WSW 7 24 4 13 - - 3.6
21/07:30am 7.8 5.7 5.6 86 1.1 WNW 6 24 3 13 - - 3.6
21/07:00am 7.6 5.3 5.6 87 1.0 W 7 24 4 13 - - 3.6
21/06:30am 7.3 5.0 5.8 90 0.7 WNW 7 22 4 12 - - 3.6
21/06:00am 7.3 4.6 5.6 89 0.8 W 9 28 5 15 - - 3.6
21/05:30am 7.3 4.6 5.4 88 0.9 W 9 26 5 14 - - 3.6
21/05:00am 6.9 4.5 5.4 90 0.7 WNW 7 26 4 14 - - 3.6
21/04:30am 6.9 4.7 5.5 91 0.7 NNW 6 22 3 12 - - 3.6
21/04:00am 6.7 3.9 5.3 91 0.7 N 9 28 5 15 - - 3.6
21/03:30am 6.9 5.2 5.8 93 0.5 WSW 4 13 2 7 - - 3.6
21/03:00am 6.8 4.5 5.9 94 0.4 NW 7 19 4 10 - - 3.6
21/02:30am 6.7 3.3 5.8 94 0.4 WNW 13 26 7 14 - - 3.6
21/02:00am 6.7 3.3 5.8 94 0.4 WNW 13 33 7 18 - - 3.6
21/01:30am 6.8 3.4 5.9 94 0.4 WNW 13 32 7 17 - - 3.6
21/01:00am 6.8 2.1 6.2 96 0.3 W 20 32 11 17 - - 3.6
21/12:30am 6.8 1.7 6.2 96 0.3 W 22 41 12 22 - - 3.6
21/12:00am 6.8 1.8 6.4 97 0.2 W 22 41 12 22 - - 3.6
 
Date/Time
EST
Temp
°C
App
Temp
°C
Dew
Point
°C
Rel
Hum
%
Delta-T
°C
Wind Press
QNH
hPa
Press
MSL
hPa
Rain since
9am
mm
Dir  Spd
km/h
Gust
km/h
Spd
kts
Gust
kts
20/11:30pm 6.6 -1.7 6.2 97 0.2 W 39 61 21 33 - - 3.6
20/11:00pm 6.7 -3.7 6.0 95 0.3 W 50 72 27 39 - - 3.6
20/10:30pm 6.5 -5.0 6.1 97 0.2 W 56 80 30 43 - - 3.6
20/10:00pm 6.6 -4.6 6.0 96 0.3 W 54 78 29 42 - - 3.6
20/09:46pm 6.7 -4.1 6.0 95 0.3 W 52 70 28 38 - - 3.6
20/09:45pm 6.7 -4.1 6.1 96 0.3 W 52 70 28 38 - - 3.6
20/09:30pm 6.4 -1.5 6.3 99 0.1 W 37 63 20 34 - - 3.6
20/09:00pm 6.3 -1.3 6.0 98 0.1 WNW 35 57 19 31 - - 3.6
20/08:33pm 6.3 0.0 5.9 97 0.2 W 28 48 15 26 - - 3.4
20/08:30pm 6.3 0.8 5.7 96 0.3 W 24 46 13 25 - - 3.4
20/08:00pm 6.5 -0.2 5.8 95 0.3 W 30 54 16 29 - - 3.4
20/07:30pm 6.3 -0.3 6.2 99 0.1 W 30 50 16 27 - - 3.4
20/07:00pm 6.6 -0.6 4.8 88 0.9 W 32 50 17 27 - - 3.4
20/06:56pm 6.3 -0.1 5.4 94 0.4 W 28 50 15 27 - - 3.4
20/06:30pm 6.7 2.1 6.7 100 0.0 W 20 32 11 17 - - 3.4
20/06:00pm 6.5 2.1 6.5 100 0.0 WNW 19 32 10 17 - - 3.4

Latest Capital City Observations: Canberra | Sydney | Melbourne | Brisbane | Adelaide | Perth | Hobart | Darwin

Other formats

Comma delimited format used in spreadsheet applications
http://www.bom.gov.au/fwo/IDN60903/IDN60903.94915.axf

JavaScript Object Notation format (JSON) in row-major order
http://www.bom.gov.au/fwo/IDN60903/IDN60903.94915.json

Data quality

Most of these data are generated automatically and are frequently updated. Quality checks on data are not normally performed. It is possible for incorrect values to appear. Refer to information at About Latest Weather Observations and please check the disclaimer before using these data.